^^

METAR Αεροδρομίων

σε ακτίνα 500 χλμ


 Τι είναι το METAR ??? 

Πρώτο είναι το πλησιέστερο αεροδρόμιο (Θεσ/νίκη LGTS 6χλμ) και
τέλος το πιο απομακρυσμένο (Κων/πολη LTBA 494χλμ).
Επίσης μερικές αναφορές, παρουσιάζουν λιγότερα στοιχεία γιατί
οι αρχικές είναι ελλιπείς ή έχουν λάθος μορφοποίηση.
Πηγαίνετε στις Αναφορές METAR από Μετεωρολογικούς Σταθμούς )  
Αλφαβητική Λίστα Γρήγορης Μετάβασης στα 48 Αεροδρόμια
Αλβανία: Τίρανα  Βουλγαρία: Γκόρνα Οριαχόβιτσα  Μπουργκάς  Σόφια  Φιλιππούπολη  Ελλάδα: Αθήνα  Αλεξανδρούπολη  Ανδραβίδα  Βόλος  Ελευσίνα  Ζάκυνθος  Θεσσαλονίκη  Ιωάννινα  Καβάλα  Καλαμάτα  Κέρκυρα  Κεφαλονιά  Κοζάνη  Κύθηρα
Λέσβος  Λήμνος  Μύκονος  Νάξος  Πάρος  Πάτρα  Πρέβεζα  Σάμος  Σκιάθος  Σκύρος  Σύρος  Χίος  Ιταλία: Γκαλατίνα  Μπρίντιζι  Σάντα Μαρία ντι Λέουκα  Ταράντο  Κόσοβο: Πρίστινα  Κροατία: Ντουμπρόβνικ  Μαυροβούνιο: Ποντγκόριτσα  Τιβάτ
Δ.Β.Μ: Οχρίδα  Σκόπια  Ρουμανία: Κραϊόβα  Σερβία: Κράλιεβο  Νις  Ούζιτσε  Τουρκία: Κωνσταντινούπολη  Σμύρνη Τσορλού 
(ΒΠΑ)Βάση Πολεμικής Αεροπορίας
LGTS - Αεροδρόμιο "Μακεδονία"
Θεσσαλονίκη - Κεντρική Μακεδονία - Ελλάδα
Γ.Πλάτ: 40.5167 - Γ.Μήκ: 22.9667 - Υψόμ: 7μ
Απόσταση από το Vouhead Weather: (Ν) 6χλμ
Ενημερώθηκε: 04/12/2021 10:20
Διάσπαρτα νέφη
Διάσπαρτα νέφη
 Άνεμος από ΒΔ
Άνεμος: ΒΔ 13 km/h
Θερμοκρασία: 12°C
Σημ. Δρόσου: 8°C
Υγρασία: 77%
Βαρόμετρο: 1010 hPa
Σύννεφα: Διάσπαρτα νέφη
Ορατότητα: 8 km
Ανάλυση νέφωσης: Διάσπαρτα νέφη 152 m
2021/12/04 08:20 LGTS 040820Z 31007KT 8000 FEW005 12/08 Q1010 NOSIG
LGKZ - Αεροδρόμιο "Φίλιππος"
Κοζάνη - Δυτική Μακεδονία - Ελλάδα
Γ.Πλάτ: 40.2833 - Γ.Μήκ: 21.8333 - Υψόμ: 628μ
Απόσταση από το Vouhead Weather: (ΔΝΔ) 102χλμ
Ενημερώθηκε: 04/12/2021 09:50
Κυρίως νεφελώδης
Κυρίως νεφελώδης
 Άνεμος από Β
Άνεμος: Β 7 km/h
Θερμοκρασία: 7°C
Ψυχρότητα Ανέμου: 6°C
Σημ. Δρόσου: 5°C
Υγρασία: 87%
Βαρόμετρο: 1010 hPa
Σύννεφα: Κυρίως νεφελώδης
Ορατότητα: 10 km
Ανάλυση νέφωσης: Διάσπαρτα νέφη 122 m
Κυρίως νεφελώδης 610 m
Κυρίως νεφελώδης 2134 m
2021/12/04 07:50 LGKZ 040750Z 01004KT 9999 FEW004 BKN020 BKN070 07/05 Q1010
 
LGKV - Αεροδρόμιο "Μέγας Αλέξανδρος"
Καβάλα(Χρυσούπολη) - Α. Μακεδονία & Θράκη - Ελλάδα
Γ.Πλάτ: 40.9167 - Γ.Μήκ: 24.6167 - Υψόμ: 5μ
Απόσταση από το Vouhead Weather: (ΑΒΑ) 144χλμ
Ενημερώθηκε: 04/12/2021 10:20
Διάσπαρτα νέφη
Διάσπαρτα νέφη
 Άνεμος από Δ
Άνεμος: Δ 11 km/h
Θερμοκρασία: 14°C
Σημ. Δρόσου: 13°C
Υγρασία: 94%
Βαρόμετρο: 1008 hPa
Σύννεφα: Διάσπαρτα νέφη
Ορατότητα: 10 km
Ανάλυση νέφωσης: Διάσπαρτα νέφη 244 m
2021/12/04 08:20 LGKV 040820Z 27006KT 9999 FEW008 14/13 Q1008
LGBL - Αεροδρόμιο στη Νέα Αγχίαλο
Βόλος(Αλμυρός) - Θεσσαλία - Ελλάδα
Γ.Πλάτ: 39.2167 - Γ.Μήκ: 22.8000 - Υψόμ: 26μ
Απόσταση από το Vouhead Weather: (Ν) 151χλμ
Ενημερώθηκε: 04/12/2021 10:20
Κυρίως νεφελώδης
Κυρίως νεφελώδης
 Άνεμος από ΒΔ
Άνεμος: ΒΔ 11 km/h
Θερμοκρασία: 7°C
Ψυχρότητα Ανέμου: 5°C
Σημ. Δρόσου: 6°C
Υγρασία: 93%
Βαρόμετρο: 1010 hPa
Σύννεφα: Κυρίως νεφελώδης
Ορατότητα: 10 km
Ανάλυση νέφωσης: Διάσπαρτα νέφη 914 m
Κυρίως νεφελώδης 2438 m
2021/12/04 08:20 LGBL 040820Z 31006KT 9999 FEW030 BKN080 07/06 Q1010
 
LGSK - Αεροδρόμ. "Αλέξανδρος Παπαδιαμάντης"
Σκιάθος - Θεσσαλία(Σποράδες) - Ελλάδα
Γ.Πλάτ: 39.1833 - Γ.Μήκ: 23.5000 - Υψόμ: 15μ
Απόσταση από το Vouhead Weather: (ΝΝΑ) 160χλμ
Ενημερώθηκε: 02/12/2021 11:50
ΜΗ ΠΡΟΣΦΑΤΟ METAR
Αίθριος
Αίθριος
 Άνεμος από Ν
Άνεμος: Ν 9 km/h
Θερμοκρασία: 16°C
Σημ. Δρόσου: 6°C
Υγρασία: 52%
Βαρόμετρο: 1014 hPa
Περίληψη: Αίθριος
Ορατότητα: Μεγαλύτερη από 10 km
2021/12/02 09:50 LGSK 020950Z 18005KT CAVOK 16/06 Q1014
LWSK - Αεροδρόμιο "Σκόπγιε Ιντερνάσιοναλ Έιρπορτ"
Σκόπια(Πέτροβακ) - Περιφέρεια Σκοπίων - Δ.Β.Μ
Γ.Πλάτ: 41.9667 - Γ.Μήκ: 21.6333 - Υψόμ: 239μ
Απόσταση από το Vouhead Weather: (ΒΔ) 192χλμ
Ενημερώθηκε: 04/12/2021 10:30
Κυρίως νεφελώδης
Κυρίως νεφελώδης
 Άνεμος από calm
Άνεμος: Απνοια
Θερμοκρασία: 6°C
Σημ. Δρόσου: 1°C
Υγρασία: 71%
Βαρόμετρο: 1012 hPa
Σύννεφα: Κυρίως νεφελώδης
Ορατότητα: 10 km
Ανάλυση νέφωσης: Μερικώς νεφελώδης 701 m
Κυρίως νεφελώδης 1097 m
2021/12/04 08:30 LWSK 040830Z 00000KT 9999 SCT023 BKN036 06/01 Q1012 NOSIG
 
LWOH - Αεροδρόμιο "Σεντ Πολ Δε Απόστλ"
Οχρίδα - Νοτιοδυτική Περιφέρεια - Δ.Β.Μ
Γ.Πλάτ: 41.9667 - Γ.Μήκ: 21.6333 - Υψόμ: 239μ
Απόσταση από το Vouhead Weather: (ΔΒΔ) 193χλμ
Ενημερώθηκε: 04/12/2021 10:30
Κυρίως νεφελώδης
Κυρίως νεφελώδης
 Άνεμος από ΒΔ
Άνεμος: ΒΔ 6 km/h
Θερμοκρασία: 6°C
Σημ. Δρόσου: 2°C
Υγρασία: 76%
Βαρόμετρο: 1010 hPa
Σύννεφα: Κυρίως νεφελώδης
Ορατότητα: 10 km
Ανάλυση νέφωσης: Κυρίως νεφελώδης 1219 m
2021/12/04 08:30 LWOH 040830Z 31003KT 9999 BKN040 06/02 Q1010
LGLM - Αεροδρόμιο "Ήφαιστος"
Λήμνος - Βόρειο Αιγαίο - Ελλάδα
Γ.Πλάτ: 39.9167 - Γ.Μήκ: 25.2333 - Υψόμ: 5μ
Απόσταση από το Vouhead Weather: (ΑΝΑ) 205χλμ
Ενημερώθηκε: 04/12/2021 10:20
Κυρίως νεφελώδης
Κυρίως νεφελώδης
 Άνεμος από calm
Άνεμος: Απνοια
Θερμοκρασία: 14°C
Σημ. Δρόσου: 14°C
Υγρασία: 100%
Βαρόμετρο: 1009 hPa
Σύννεφα: Κυρίως νεφελώδης
Ορατότητα: 10 km
Ανάλυση νέφωσης: Διάσπαρτα νέφη 244 m
Κυρίως νεφελώδης 549 m
2021/12/04 08:20 LGLM 040820Z 00000KT 9999 FEW008 BKN018 14/14 Q1009
 
LGIO - Αεροδρόμιο "Βασιλεύς Πύρρος"
Ιωάννινα - Ήπειρος - Ελλάδα
Γ.Πλάτ: 39.7000 - Γ.Μήκ: 20.8167 - Υψόμ: 476μ
Απόσταση από το Vouhead Weather: (ΔΝΔ) 207χλμ
Ενημερώθηκε: 04/12/2021 10:20
Κυρίως νεφελώδης
Κυρίως νεφελώδης
 Άνεμος από ΒΒΔ
Άνεμος: ΒΒΔ 4 km/h
Θερμοκρασία: 7°C
Σημ. Δρόσου: 7°C
Υγρασία: 100%
Βαρόμετρο: 1010 hPa
Σύννεφα: Κυρίως νεφελώδης
Ορατότητα: 10 km
Ανάλυση νέφωσης: Διάσπαρτα νέφη 91 m
Κυρίως νεφελώδης 1067 m
2021/12/04 08:20 LGIO 040820Z 33002KT 9999 FEW003 BKN035 07/07 Q1010
LGSY - Αεροδρόμιο στη Σκύρο
Σκύρος - Θεσσαλία(Σποράδες) - Ελλάδα
Γ.Πλάτ: 38.9667 - Γ.Μήκ: 24.4833 - Υψόμ: 15μ
Απόσταση από το Vouhead Weather: (ΝΑ) 220χλμ
Ενημερώθηκε: 04/12/2021 09:50
Μερικώς νεφελώδης
Μερικώς νεφελώδης
 Άνεμος από Ν
Άνεμος: Ν 22 km/h
Θερμοκρασία: 15°C
Σημ. Δρόσου: 13°C
Υγρασία: 88%
Βαρόμετρο: 1008 hPa
Σύννεφα: Μερικώς νεφελώδης
Ορατότητα: 10 km
Ανάλυση νέφωσης: Διάσπαρτα νέφη 366 m
Μερικώς νεφελώδης 762 m
2021/12/04 07:50 LGSY 040750Z 19012KT 9999 FEW012 SCT025 15/13 Q1008 RMK BKN070 BLU
 
LBPD - Αεροδρόμιο στη Φιλιππούπολη
Φιλιππούπολη(Κρούμοβο) - Πλόβντιβ - Βουλγαρία
Γ.Πλάτ: 42.1333 - Γ.Μήκ: 24.8000 - Υψόμ: 185μ
Απόσταση από το Vouhead Weather: (ΒΑ) 231χλμ
Ενημερώθηκε: 04/12/2021 10:30
Ασθενής βροχή, Νεφοσκεπής
Ασθενής βροχή, Νεφοσκεπής
 Άνεμος από Δ
Άνεμος: Δ 11 km/h
Θερμοκρασία: 8°C
Ψυχρότητα Ανέμου: 6°C
Σημ. Δρόσου: 5°C
Υγρασία: 82%
Βαρόμετρο: 1010 hPa
Περίληψη: Ασθενής βροχή
Σύννεφα: Νεφοσκεπής
Ορατότητα: 10 km
Ανάλυση νέφωσης: Νεφοσκεπής 914 m
2021/12/04 08:30 LBPD 040830Z AUTO 27006KT 9999 -RA OVC030/// 08/05 Q1010 NOSIG
LBSF - Αεροδρόμιο στη Σόφια
Σόφια(Βράτσντεμπνα) - Μητρ. περ. Σόφιας - Βουλγαρία
Γ.Πλάτ: 42.6500 - Γ.Μήκ: 23.3833 - Υψόμ: 595μ
Απόσταση από το Vouhead Weather: (Β) 234χλμ
Ενημερώθηκε: 04/12/2021 10:30
Μερικώς νεφελώδης
Μερικώς νεφελώδης
 Άνεμος από Δ
Άνεμος: Δ 9 km/h
Θερμοκρασία: 3°C
Ψυχρότητα Ανέμου: 0°C
Σημ. Δρόσου: 1°C
Υγρασία: 87%
Βαρόμετρο: 1011 hPa
Σύννεφα: Μερικώς νεφελώδης
Ορατότητα: 10 km
Ανάλυση νέφωσης: Διάσπαρτα νέφη 610 m
Μερικώς νεφελώδης 975 m
2021/12/04 08:30 LBSF 040830Z 26005KT 9999 FEW020 SCT032 03/01 Q1011 NOSIG
 
LGAL - Αεροδρόμιο "Δημόκριτος"
Αλεξανδρούπολη - Α. Μακεδονία & Θράκη - Ελλάδα
Γ.Πλάτ: 40.8500 - Γ.Μήκ: 25.9167 - Υψόμ: 3μ
Απόσταση από το Vouhead Weather: (Α) 250χλμ
Ενημερώθηκε: 04/12/2021 10:20
Ασθενής βροχή, Κυρίως νεφελώδης
Ασθενής βροχή, Κυρίως νεφελώδης
 Άνεμος από calm
Άνεμος: Απνοια
Θερμοκρασία: 13°C
Σημ. Δρόσου: 11°C
Υγρασία: 88%
Βαρόμετρο: 1007 hPa
Περίληψη: Ασθενής βροχή
Σύννεφα: Κυρίως νεφελώδης
Ορατότητα: 7 km
Ανάλυση νέφωσης: Διάσπαρτα νέφη 244 m
Κυρίως νεφελώδης 549 m
2021/12/04 08:20 LGAL 040820Z 00000KT 7000 -RA FEW008 BKN018 13/11 Q1007
BKPR - Αεροδρόμιο "Αντεμ Γιασάρι"
Πρίστινα - Πρίστινα - Κόσοβο
(Ελληνικό Υπουργείο Εξωτερικών, σχετικά με το Κόσοβο)
Γ.Πλάτ: 42.5833 - Γ.Μήκ: 21.0333 - Υψόμ: 576μ
Απόσταση από το Vouhead Weather: (ΒΔ) 276χλμ
Ενημερώθηκε: 04/12/2021 10:30
Κυρίως νεφελώδης
Κυρίως νεφελώδης
 Άνεμος από ΒΑ
Άνεμος: ΒΑ 9 km/h
Θερμοκρασία: 2°C
Ψυχρότητα Ανέμου: -1°C
Σημ. Δρόσου: -1°C
Υγρασία: 81%
Βαρόμετρο: 1011 hPa
Σύννεφα: Κυρίως νεφελώδης
Ορατότητα: 10 km
Ανάλυση νέφωσης: Κυρίως νεφελώδης 1067 m
2021/12/04 08:30 BKPR 040830Z 05005KT 330V080 9999 BKN035 02/M01 Q1011 NOSIG
 
LGKR - Αεροδρόμιο "Ιωάννης Καποδίστριας"
Κέρκυρα - Ιόνιοι Νήσοι - Ελλάδα
Γ.Πλάτ: 39.6000 - Γ.Μήκ: 19.9167 - Υψόμ: 2μ
Απόσταση από το Vouhead Weather: (ΔΝΔ) 281χλμ
Ενημερώθηκε: 04/12/2021 10:20
Μερικώς νεφελώδης
Μερικώς νεφελώδης
 Άνεμος από calm
Άνεμος: Απνοια
Θερμοκρασία: 13°C
Σημ. Δρόσου: 12°C
Υγρασία: 94%
Βαρόμετρο: 1007 hPa
Σύννεφα: Μερικώς νεφελώδης
Ορατότητα: 10 km
Ανάλυση νέφωσης: Διάσπαρτα νέφη 488 m
Μερικώς νεφελώδης 1067 m
2021/12/04 08:20 LGKR 040820Z 00000KT 9999 FEW016 SCT035 13/12 Q1007 NOSIG
LATI - Αεροδρόμιο "Μάδερ Τερέζα"
Τίρανα(Ρίνα) - Τίρανα - Αλβανία
Γ.Πλάτ: 41.3167 - Γ.Μήκ: 19.7667 - Υψόμ: 90μ
Απόσταση από το Vouhead Weather: (ΔΒΔ) 282χλμ
Ενημερώθηκε: 04/12/2021 10:20
Κυρίως νεφελώδης
Κυρίως νεφελώδης
 Άνεμος από calm
Άνεμος: Απνοια
Θερμοκρασία: 12°C
Σημ. Δρόσου: 8°C
Υγρασία: 77%
Βαρόμετρο: 1009 hPa
Σύννεφα: Κυρίως νεφελώδης
Ορατότητα: 10 km
Ανάλυση νέφωσης: Κυρίως νεφελώδης 1890 m
2021/12/04 08:20 LATI 040820Z 00000KT 9999 BKN062 12/08 Q1009 NOSIG
 
LGEL - Αεροδρόμιο στην Ελευσίνα(ΒΠΑ)
Ελευσίνα - Αττική - Ελλάδα
Γ.Πλάτ: 38.0667 - Γ.Μήκ: 23.5500 - Υψόμ: 31μ
Απόσταση από το Vouhead Weather: (Ν) 282χλμ
Ενημερώθηκε: 04/12/2021 10:20
Κυρίως νεφελώδης
Κυρίως νεφελώδης
 Άνεμος από Μεταβλητός
Άνεμος: Μεταβλητός 4 km/h
Θερμοκρασία: 14°C
Σημ. Δρόσου: 12°C
Υγρασία: 88%
Βαρόμετρο: 1008 hPa
Σύννεφα: Κυρίως νεφελώδης
Ορατότητα: 10 km
Ανάλυση νέφωσης: Διάσπαρτα νέφη 457 m
Κυρίως νεφελώδης 762 m
2021/12/04 08:20 LGEL 040820Z VRB02KT 9999 FEW015 BKN025 14/12 Q1008
LGPZ - Αεροδρόμιο στη Πρέβεζα
Πρέβεζα(Ακτιον) - Ήπειρος - Ελλάδα
Γ.Πλάτ: 38.6167 - Γ.Μήκ: 20.7667 - Υψόμ: 4μ
Απόσταση από το Vouhead Weather: (ΝΔ) 288χλμ
Ενημερώθηκε: 04/12/2021 10:20
Κυρίως νεφελώδης
Κυρίως νεφελώδης
 Άνεμος από ΑΒΑ
Άνεμος: ΑΒΑ 13 km/h
Θερμοκρασία: 13°C
Σημ. Δρόσου: 9°C
Υγρασία: 77%
Βαρόμετρο: 1009 hPa
Σύννεφα: Κυρίως νεφελώδης
Ορατότητα: 10 km
Ανάλυση νέφωσης: Διάσπαρτα νέφη 427 m
Διάσπαρτα νέφη 488 m
Κυρίως νεφελώδης 762 m
Κυρίως νεφελώδης 2438 m
2021/12/04 08:20 LGPZ 040820Z 06007KT 9999 FEW014 FEW016TCU BKN025 BKN080 13/09 Q1009
 
LGRX - Αεροδρόμιο στη Πάτρα(ΒΠΑ)
Πάτρα(Αραξος) - Δυτική Ελλάδα - Ελλάδα
Γ.Πλάτ: 38.1667 - Γ.Μήκ: 21.4167 - Υψόμ: 15μ
Απόσταση από το Vouhead Weather: (ΝΝΔ) 299χλμ
Ενημερώθηκε: 04/12/2021 10:20
Ασθενής βροχή, Κυρίως νεφελώδης
Ασθενής βροχή, Κυρίως νεφελώδης
 Άνεμος από ΒΒΑ
Άνεμος: ΒΒΑ 13 km/h
Θερμοκρασία: 13°C
Σημ. Δρόσου: 11°C
Υγρασία: 88%
Βαρόμετρο: 1008 hPa
Περίληψη: Ασθενής βροχή
Σύννεφα: Κυρίως νεφελώδης
Ορατότητα: 10 km
Ανάλυση νέφωσης: Διάσπαρτα νέφη 549 m
Κυρίως νεφελώδης 762 m
2021/12/04 08:20 LGRX 040820Z 03007KT 9999 -RA FEW018TCU BKN025 13/11 Q1008
LGAV - Αεροδρόμιο "Ελευθέριος Βεμιζέλος"
Αθήνα(Σπάτα) - Αττική - Ελλάδα
Γ.Πλάτ: 37.9333 - Γ.Μήκ: 23.9500 - Υψόμ: 94μ
Απόσταση από το Vouhead Weather: (ΝΝΑ) 305χλμ
Ενημερώθηκε: 04/12/2021 10:20
Κυρίως νεφελώδης
Κυρίως νεφελώδης
 Άνεμος από Μεταβλητός
Άνεμος: Μεταβλητός 6 km/h
Θερμοκρασία: 14°C
Σημ. Δρόσου: 12°C
Υγρασία: 88%
Βαρόμετρο: 1011 hPa
Σύννεφα: Κυρίως νεφελώδης
Ορατότητα: 10 km
Ανάλυση νέφωσης: Διάσπαρτα νέφη 244 m
Μερικώς νεφελώδης 762 m
Κυρίως νεφελώδης 2134 m
2021/12/04 08:20 LGAV 040820Z VRB03KT 9999 FEW008 SCT025 BKN070 14/12 Q1011 NOSIG
 
LYNI - Αεροδρόμιο "Κονσταντίν Δε Γκρέιτ"
Νις - Νότια και Ανατολική Σερβία - Σερβία
Γ.Πλάτ: 43.3167 - Γ.Μήκ: 21.8833 - Υψόμ: 202μ
Απόσταση από το Vouhead Weather: (ΒΒΔ) 319χλμ
Ενημερώθηκε: 04/12/2021 10:30
Μερικώς νεφελώδης
Μερικώς νεφελώδης
 Άνεμος από Μεταβλητός
Άνεμος: Μεταβλητός 4 km/h
Θερμοκρασία: 3°C
Σημ. Δρόσου: 1°C
Υγρασία: 87%
Βαρόμετρο: 1013 hPa
Σύννεφα: Μερικώς νεφελώδης
Ορατότητα: 10 km
Ανάλυση νέφωσης: Διάσπαρτα νέφη 305 m
Μερικώς νεφελώδης 701 m
2021/12/04 08:30 LYNI 040830Z VRB02KT 9999 FEW010 SCT023 03/01 Q1013 NOSIG
LGAD - Αεροδρόμιο στην Ανδραβίδα(ΒΠΑ)
Ανδραβίδα - Δυτική Ελλάδα - Ελλάδα
Γ.Πλάτ: 37.9167 - Γ.Μήκ: 21.2667 - Υψόμ: 12μ
Απόσταση από το Vouhead Weather: (ΝΝΔ) 329χλμ
Ενημερώθηκε: 04/12/2021 10:20
Μερικώς νεφελώδης
Μερικώς νεφελώδης
 Άνεμος από ΒΑ
Άνεμος: ΒΑ 9 km/h
Θερμοκρασία: 16°C
Σημ. Δρόσου: 11°C
Υγρασία: 72%
Βαρόμετρο: 1008 hPa
Σύννεφα: Μερικώς νεφελώδης
Ορατότητα: 10 km
Ανάλυση νέφωσης: Διάσπαρτα νέφη 549 m
Μερικώς νεφελώδης 762 m
2021/12/04 08:20 LGAD 040820Z 04005KT 9999 FEW018TCU SCT025 16/11 Q1008
 
LGKF - Αεροδρόμιο στην Κεφαλονιά
Κεφαλονιά - Ιόνιοι Νήσοι - Ελλάδα
Γ.Πλάτ: 38.1167 - Γ.Μήκ: 20.5000 - Υψόμ: 18μ
Απόσταση από το Vouhead Weather: (ΝΔ) 346χλμ
Ενημερώθηκε: 04/12/2021 09:50
Ασθενής βροχή, Κυρίως νεφελώδης
Ασθενής βροχή, Κυρίως νεφελώδης
 Άνεμος από ΒΑ
Άνεμος: ΒΑ 11 km/h
Θερμοκρασία: 11°C
Σημ. Δρόσου: 9°C
Υγρασία: 88%
Βαρόμετρο: 1008 hPa
Περίληψη: Ασθενής βροχή
Σύννεφα: Κυρίως νεφελώδης
Ορατότητα: 8 km
Ανάλυση νέφωσης: Μερικώς νεφελώδης 366 m
Διάσπαρτα νέφη 457 m
Μερικώς νεφελώδης 610 m
Κυρίως νεφελώδης 2134 m
2021/12/04 07:50 LGKF 040750Z 04006KT 8000 -RA SCT012 FEW015TCU SCT020 BKN070 11/09 Q1008
LGMT - Αεροδρόμιο "Οδυσσέας Ελύτης"
Λέσβος - Βόρειο Αιγαίο - Ελλάδα
Γ.Πλάτ: 39.0500 - Γ.Μήκ: 26.6000 - Υψόμ: 17μ
Απόσταση από το Vouhead Weather: (ΑΝΑ) 353χλμ
Ενημερώθηκε: 04/12/2021 10:20
Ασθενής βροχή, Κυρίως νεφελώδης
Ασθενής βροχή, Κυρίως νεφελώδης
 Άνεμος από ΔΝΔ
Άνεμος: ΔΝΔ 19 km/h, Ριπή: 39 km/h
Θερμοκρασία: 18°C
Σημ. Δρόσου: 13°C
Υγρασία: 73%
Βαρόμετρο: 1011 hPa
Περίληψη: Ασθενής βροχή
Σύννεφα: Κυρίως νεφελώδης
Ορατότητα: 7 km
Ανάλυση νέφωσης: Διάσπαρτα νέφη 549 m
Κυρίως νεφελώδης 762 m
2021/12/04 08:20 LGMT 040820Z 24010G21KT 180V290 7000 -RA FEW018TCU BKN025 18/13 Q1011
 
LGZA - Αεροδρόμιο "Διονύσιος Σολωμός"
Ζάκυνθος - Ιόνιοι Νήσοι - Ελλάδα
Γ.Πλάτ: 37.7500 - Γ.Μήκ: 20.8667 - Υψόμ: 3μ
Απόσταση από το Vouhead Weather: (ΝΝΔ) 362χλμ
Ενημερώθηκε: 03/12/2021 19:50
ΜΗ ΠΡΟΣΦΑΤΟ METAR
Καταιγίδα, Κυρίως νεφελώδης
Καταιγίδα, Κυρίως νεφελώδης
 Άνεμος από ΝΝΔ
Άνεμος: ΝΝΔ 20 km/h
Θερμοκρασία: 14°C
Σημ. Δρόσου: 12°C
Υγρασία: 88%
Βαρόμετρο: 1007 hPa
Περίληψη: Καταιγίδα
Σύννεφα: Κυρίως νεφελώδης
Ορατότητα: 7 km
Ανάλυση νέφωσης: Διάσπαρτα νέφη 366 m
Μερικώς νεφελώδης 488 m
Κυρίως νεφελώδης 610 m
2021/12/03 17:50 LGZA 031750Z 20011KT 7000 TSRA FEW012 SCT016CB BKN020 14/12 Q1007
LBGO - Αεροδρόμιο στη Γκόρνα Οριαχόβιτσα
Γκόρνα Οριαχόβιτσα - Βέλικο Τάρνοβο - Βουλγαρία
Γ.Πλάτ: 43.1500 - Γ.Μήκ: 25.7167 - Υψόμ: 86μ
Απόσταση από το Vouhead Weather: (ΒΑ) 366χλμ
Ενημερώθηκε: 04/12/2021 10:30
Ασθενής βροχή, Νεφοσκεπής
Ασθενής βροχή, Νεφοσκεπής
 Άνεμος από Δ
Άνεμος: Δ 7 km/h
Θερμοκρασία: 4°C
Ψυχρότητα Ανέμου: 2°C
Σημ. Δρόσου: 4°C
Υγρασία: 100%
Βαρόμετρο: 1013 hPa
Περίληψη: Ασθενής βροχή
Σύννεφα: Νεφοσκεπής
Ορατότητα: 9 km
Ανάλυση νέφωσης: Νεφοσκεπής 122 m
2021/12/04 08:30 LBGO 040830Z AUTO 26004KT 9000 -RA OVC004/// 04/04 Q1013 NOSIG
 
LGHI - Αεροδρόμιο "Όμηρος"
Χίος - Ιόνιοι Νήσοι - Ελλάδα
Γ.Πλάτ: 38.3167 - Γ.Μήκ: 26.1167 - Υψόμ: 4μ
Απόσταση από το Vouhead Weather: (ΝΑ) 368χλμ
Ενημερώθηκε: 04/12/2021 09:50
Έντονη βροχή, Μερικώς νεφελώδης
Έντονη βροχή, Μερικώς νεφελώδης
 Άνεμος από ΝΝΔ
Άνεμος: ΝΝΔ 19 km/h
Θερμοκρασία: 16°C
Σημ. Δρόσου: 12°C
Υγρασία: 77%
Βαρόμετρο: 1011 hPa
Περίληψη: Εντονη βροχή
Σύννεφα: Μερικώς νεφελώδης
Ορατότητα: 4 km
Ανάλυση νέφωσης: Διάσπαρτα νέφη 549 m
Μερικώς νεφελώδης 762 m
2021/12/04 07:50 LGHI 040750Z 20010KT 4000 +RA FEW018 SCT025 16/12 Q1011
LYPG - Αεροδρόμιο στη Ποντγκόριτσα
Ποντγκόριτσα - Γκολούμποβτσι - Μαυροβούνιο
Γ.Πλάτ: 42.3667 - Γ.Μήκ: 19.2500 - Υψόμ: 43μ
Απόσταση από το Vouhead Weather: (ΒΔ) 369χλμ
Ενημερώθηκε: 04/12/2021 10:30
Κυρίως νεφελώδης
Κυρίως νεφελώδης
 Άνεμος από Μεταβλητός
Άνεμος: Μεταβλητός 4 km/h
Θερμοκρασία: 9°C
Σημ. Δρόσου: 4°C
Υγρασία: 71%
Βαρόμετρο: 1011 hPa
Σύννεφα: Κυρίως νεφελώδης
Ορατότητα: 10 km
Ανάλυση νέφωσης: Κυρίως νεφελώδης 1219 m
2021/12/04 08:30 LYPG 040830Z VRB02KT 9999 BKN040 09/04 Q1011 NOSIG
 
LGSO - Αεροδρόμιο "Δημήτριος Βικέλας"
Σύρος - Νότιο Αιγαίο - Ελλάδα
Γ.Πλάτ: 37.4167 - Γ.Μήκ: 24.9500 - Υψόμ: 72μ
Απόσταση από το Vouhead Weather: (ΝΝΑ) 390χλμ
Ενημερώθηκε: 04/12/2021 09:50
Βροχή, Κυρίως νεφελώδης
Βροχή, Κυρίως νεφελώδης
 Άνεμος από Δ
Άνεμος: Δ 26 km/h
Θερμοκρασία: 14°C
Σημ. Δρόσου: 12°C
Υγρασία: 88%
Βαρόμετρο: 1012 hPa
Περίληψη: Βροχή
Σύννεφα: Κυρίως νεφελώδης
Ορατότητα: 6 km
Ανάλυση νέφωσης: Μερικώς νεφελώδης 366 m
Κυρίως νεφελώδης 549 m
2021/12/04 07:50 LGSO 040750Z 26014KT 6000 RA SCT012 BKN018 14/12 Q1012
LGKL - Αεροδρόμιο στη Καλαμάτα(ΒΠΑ)
Καλαμάτα - Πελοπόννησος - Ελλάδα
Γ.Πλάτ: 37.0667 - Γ.Μήκ: 22.0167 - Υψόμ: 8μ
Απόσταση από το Vouhead Weather: (ΝΝΔ) 398χλμ
Ενημερώθηκε: 04/12/2021 10:20

 Άνεμος από ΝΝΑ
Άνεμος: ΝΝΑ 11 km/h
Θερμοκρασία: 14°C
Σημ. Δρόσου: 12°C
Υγρασία: 88%
Βαρόμετρο: 1009 hPa
2021/12/04 08:20 LGKL 040820Z AUTO 15006KT //// // ////// 14/12 Q1009 RERA
 
LIBY - Αεροδρόμιο στη Σάντα Μαρία ντι Λέουκα
Σάντα Μαρία ντι Λέουκα - Απουλία(Λέτσε) - Ιταλία
Γ.Πλάτ: 39.8167 - Γ.Μήκ: 18.3500 - Υψόμ: 112μ
Απόσταση από το Vouhead Weather: (Δ) 402χλμ
Ενημερώθηκε: 04/12/2021 09:55
Αίθριος
Αίθριος
 Άνεμος από ΒΒΔ
Άνεμος: ΒΒΔ 19 km/h
Θερμοκρασία: 12°C
Σημ. Δρόσου: 7°C
Υγρασία: 72%
Βαρόμετρο: 1008 hPa
Περίληψη: Αίθριος
Ορατότητα: Μεγαλύτερη από 10 km
2021/12/04 07:55 LIBY 040755Z 34010KT CAVOK 12/07 Q1008 RMK SKC QUK 2 QUL 1 N VIS MAR 20 KM VIS MIN 9999
LGMK - Αεροδρόμιο στη Μύκονο
Μύκονος - Νότιο Αιγαίο - Ελλάδα
Γ.Πλάτ: 37.4333 - Γ.Μήκ: 25.3500 - Υψόμ: 123μ
Απόσταση από το Vouhead Weather: (ΝΝΑ) 404χλμ
Ενημερώθηκε: 04/12/2021 10:20
Ασθενής βροχή, Κυρίως νεφελώδης
Ασθενής βροχή, Κυρίως νεφελώδης
 Άνεμος από ΝΔ
Άνεμος: ΝΔ 7 km/h
Θερμοκρασία: 13°C
Σημ. Δρόσου: 11°C
Υγρασία: 88%
Βαρόμετρο: 1011 hPa
Περίληψη: Ασθενής βροχή
Σύννεφα: Κυρίως νεφελώδης
Ορατότητα: 7 km
Ανάλυση νέφωσης: Μερικώς νεφελώδης 244 m
Κυρίως νεφελώδης 610 m
2021/12/04 08:20 LGMK 040820Z 23004KT 7000 -RA SCT008 BKN020 13/11 Q1011
 
LYTV - Αεροδρόμιο στο Τιβάτ
Τιβάτ - Τιβάτ - Μαυροβούνιο
Γ.Πλάτ: 42.3833 - Γ.Μήκ: 18.7167 - Υψόμ: 5μ
Απόσταση από το Vouhead Weather: (ΔΒΔ) 408χλμ
Ενημερώθηκε: 04/12/2021 10:30
Κυρίως νεφελώδης
Κυρίως νεφελώδης
 Άνεμος από Μεταβλητός
Άνεμος: Μεταβλητός 2 km/h
Θερμοκρασία: 11°C
Σημ. Δρόσου: 10°C
Υγρασία: 94%
Βαρόμετρο: 1010 hPa
Σύννεφα: Κυρίως νεφελώδης
Ορατότητα: 10 km
Ανάλυση νέφωσης: Διάσπαρτα νέφη 1006 m
Κυρίως νεφελώδης 1524 m
2021/12/04 08:30 LYTV 040830Z VRB01KT 9999 FEW033 BKN050 11/10 Q1010 NOSIG
LIBN - Αεροδρόμιο στη Γκαλατίνα(ΒΠΑ)
Γκαλατίνα - Απουλία(Λέτσε) - Ιταλία
Γ.Πλάτ: 40.2167 - Γ.Μήκ: 18.1333 - Υψόμ: 61μ
Απόσταση από το Vouhead Weather: (Δ) 412χλμ
Ενημερώθηκε: 04/12/2021 09:55
Αίθριος
Αίθριος
 Άνεμος από ΒΔ
Άνεμος: ΒΔ 17 km/h
Θερμοκρασία: 12°C
Σημ. Δρόσου: 8°C
Υγρασία: 77%
Βαρόμετρο: 1010 hPa
Περίληψη: Αίθριος
Ορατότητα: Μεγαλύτερη από 10 km
2021/12/04 07:55 LIBN 040755Z 32009KT CAVOK 12/08 Q1010 RMK SKC VIS MIN 9999 WIND THR14 33010KT WIND THR32 33010KT BLU
 
LYKV - Αεροδρόμιο στο Κράλιεβο & Λάντεβτσι
Κράλιεβο(Όμπρβα) - Σουμαντίγια και Δ. Σερβία - Σερβία
Γ.Πλάτ: 43.8167 - Γ.Μήκ: 20.5833 - Υψόμ: 209μ
Απόσταση από το Vouhead Weather: (ΒΒΔ) 412χλμ
Ενημερώθηκε: 04/12/2021 10:30
Αχλύς, Κυρίως νεφελώδης
Αχλύς, Κυρίως νεφελώδης
 Άνεμος από Μεταβλητός
Άνεμος: Μεταβλητός 2 km/h
Θερμοκρασία: 4°C
Σημ. Δρόσου: 2°C
Υγρασία: 87%
Βαρόμετρο: 1013 hPa
Περίληψη: Αχλύς
Σύννεφα: Κυρίως νεφελώδης
Ορατότητα: 4 km
Ανάλυση νέφωσης: Διάσπαρτα νέφη 122 m
Κυρίως νεφελώδης 1219 m
2021/12/04 08:30 LYKV 040830Z VRB01KT 4000 BR FEW004 BKN040 04/02 Q1013 NOSIG
LTBU - Αεροδρόμιο στο Τσορλού(ΒΠΑ)
Τσορλού - Μαρμαράς(Τεκιρντάγ-Ραιδεστός) - Τουρκία
Γ.Πλάτ: 41.1167 - Γ.Μήκ: 27.9167 - Υψόμ: 173μ
Απόσταση από το Vouhead Weather: (Α) 420χλμ
Ενημερώθηκε: 04/12/2021 10:32
Rain showers, Κυρίως νεφελώδης
Rain showers, Κυρίως νεφελώδης
 Άνεμος από Ν
Άνεμος: Ν 22 km/h
Θερμοκρασία: 13°C
Σημ. Δρόσου: 12°C
Υγρασία: 94%
Βαρόμετρο: 1009 hPa
Περίληψη: Rain Showers
Σύννεφα: Κυρίως νεφελώδης
Ορατότητα: 4 km
Ανάλυση νέφωσης: Διάσπαρτα νέφη 457 m
Κυρίως νεφελώδης 762 m
Κυρίως νεφελώδης 2134 m
2021/12/04 08:32 LTBU 040832Z 17012KT 4000 SHRA FEW015 BKN025 BKN070 13/12 Q1009
 
LRCV - Αεροδρόμιο στη Κραϊόβα
Κραϊόβα - Δολζ - Ρουμανία
Γ.Πλάτ: 44.3167 - Γ.Μήκ: 23.8833 - Υψόμ: 191μ
Απόσταση από το Vouhead Weather: (Β) 424χλμ
Ενημερώθηκε: 04/12/2021 10:30
Νεφοσκεπής
Νεφοσκεπής
 Άνεμος από Α
Άνεμος: Α 19 km/h
Θερμοκρασία: 2°C
Ψυχρότητα Ανέμου: -2°C
Σημ. Δρόσου: 0°C
Υγρασία: 87%
Βαρόμετρο: 1013 hPa
Σύννεφα: Νεφοσκεπής
Ορατότητα: 10 km
Ανάλυση νέφωσης: Κυρίως νεφελώδης 122 m
Νεφοσκεπής 213 m
2021/12/04 08:30 LRCV 040830Z 09010KT 9999 BKN004 OVC007 02/00 Q1013
LIBR - Αεροδρόμιο στο Μπρίντιζι
(Ανεπίσημο όνομα αεροδρομίου: Ντελ Σαλέντο)
Μπρίντιζι(Πάπολα-Καζάλε) - Απουλία(Μπρίντιζι) - Ιταλία
Γ.Πλάτ: 40.6500 - Γ.Μήκ: 17.9500 - Υψόμ: 10μ
Απόσταση από το Vouhead Weather: (Δ) 424χλμ
Ενημερώθηκε: 04/12/2021 10:20
Διάσπαρτα νέφη
Διάσπαρτα νέφη
 Άνεμος από ΒΒΔ
Άνεμος: ΒΒΔ 31 km/h
Θερμοκρασία: 13°C
Σημ. Δρόσου: 6°C
Υγρασία: 63%
Βαρόμετρο: 1010 hPa
Σύννεφα: Διάσπαρτα νέφη
Ορατότητα: 10 km
Ανάλυση νέφωσης: Διάσπαρτα νέφη 305 m
2021/12/04 08:20 LIBR 040820Z 34017KT 9999 FEW010 13/06 Q1010
 
LBBG - Αεροδρόμιο στo Μπουργκάς
Μπουργκάς(Σαράφοβο) - Μπουργκάς - Βουλγαρία
Γ.Πλάτ: 42.5000 - Γ.Μήκ: 27.4833 - Υψόμ: 28μ
Απόσταση από το Vouhead Weather: (ΑΒΑ) 432χλμ
Ενημερώθηκε: 04/12/2021 10:30
Βροχή, Νεφοσκεπής
Βροχή, Νεφοσκεπής
 Άνεμος από Β
Άνεμος: Β 22 km/h
Θερμοκρασία: 6°C
Ψυχρότητα Ανέμου: 2°C
Σημ. Δρόσου: 5°C
Υγρασία: 93%
Βαρόμετρο: 1010 hPa
Περίληψη: Βροχή
Σύννεφα: Νεφοσκεπής
Ορατότητα: 9 km
Ανάλυση νέφωσης: Νεφοσκεπής 579 m
2021/12/04 08:30 LBBG 040830Z 01012KT 9000 RA OVC019 06/05 Q1010 NOSIG
LGPA - Αεροδρόμιο "Παντελαίειο"
Πάρος - Νότιο Αιγαίο - Ελλάδα
Γ.Πλάτ: 37.0000 - Γ.Μήκ: 25.0667 - Υψόμ: 36μ
Απόσταση από το Vouhead Weather: (ΝΝΑ) 436χλμ
Ενημερώθηκε: 04/12/2021 10:20
Ασθενής βροχή, Μερικώς νεφελώδης
Ασθενής βροχή, Μερικώς νεφελώδης
 Άνεμος από Ν
Άνεμος: Ν 31 km/h
Θερμοκρασία: 17°C
Σημ. Δρόσου: 14°C
Υγρασία: 83%
Βαρόμετρο: 1012 hPa
Περίληψη: Ασθενής βροχή
Σύννεφα: Μερικώς νεφελώδης
Ορατότητα: 9 km
Ανάλυση νέφωσης: Μερικώς νεφελώδης 610 m
Μερικώς νεφελώδης 914 m
2021/12/04 08:20 LGPA 040820Z 19017KT 9000 -RA SCT020TCU SCT030 17/14 Q1012
 
LGNX - Αεροδρόμιο στη Νάξο
Νάξος - Νότιο Αιγαίο - Ελλάδα
Γ.Πλάτ: 37.0833 - Γ.Μήκ: 25.3667 - Υψόμ: 4μ
Απόσταση από το Vouhead Weather: (ΝΝΑ) 439χλμ
Ενημερώθηκε: 04/12/2021 10:20
Ασθενής βροχή, Κυρίως νεφελώδης
Ασθενής βροχή, Κυρίως νεφελώδης
 Άνεμος από Ν
Άνεμος: Ν 22 km/h
Θερμοκρασία: 17°C
Σημ. Δρόσου: 12°C
Υγρασία: 73%
Βαρόμετρο: 1012 hPa
Περίληψη: Ασθενής βροχή
Σύννεφα: Κυρίως νεφελώδης
Ορατότητα: 10 km
Ανάλυση νέφωσης: Διάσπαρτα νέφη 457 m
Κυρίως νεφελώδης 762 m
2021/12/04 08:20 LGNX 040820Z 18012KT 9999 -RA FEW015 BKN025 17/12 Q1012
LTBJ - Αεροδρόμιο "Αντνάν Μεντερές"
Σμύρνη - Αιγαίο(Σμύρνη) - Τουρκία
Γ.Πλάτ: 38.2667 - Γ.Μήκ: 27.1333 - Υψόμ: 120μ
Απόσταση από το Vouhead Weather: (ΝΑ) 439χλμ
Ενημερώθηκε: 04/12/2021 10:20
Ασθενής βροχή, Showers, Κυρίως νεφελώδης
Ασθενής βροχή, Showers, Κυρίως νεφελώδης
 Άνεμος από ΝΝΑ
Άνεμος: ΝΝΑ 28 km/h
Θερμοκρασία: 15°C
Σημ. Δρόσου: 13°C
Υγρασία: 88%
Βαρόμετρο: 1011 hPa
Περίληψη: Ασθενής βροχή, Showers
Σύννεφα: Κυρίως νεφελώδης
Ορατότητα: 6 km
Ανάλυση νέφωσης: Διάσπαρτα νέφη 457 m
Μερικώς νεφελώδης 762 m
Κυρίως νεφελώδης 2438 m
2021/12/04 08:20 LTBJ 040820Z 16015KT 6000 -SHRA FEW015CB SCT025 BKN080 15/13 Q1011 TEMPO 4000 TSRA
 
LDDU - Αεροδρόμιο στο Ντουμπρόβνικ
Ντουμπρόβνικ - Ντουμπρόβνικ Νερέτβα - Κροατία
Γ.Πλάτ: 42.5667 - Γ.Μήκ: 18.2667 - Υψόμ: 165μ
Απόσταση από το Vouhead Weather: (ΔΒΔ) 450χλμ
Ενημερώθηκε: 04/12/2021 10:30
Μερικώς νεφελώδης
Μερικώς νεφελώδης
 Άνεμος από Μεταβλητός
Άνεμος: Μεταβλητός 11 km/h
Θερμοκρασία: 10°C
Ψυχρότητα Ανέμου: 8°C
Σημ. Δρόσου: 5°C
Υγρασία: 71%
Βαρόμετρο: 1010 hPa
Σύννεφα: Μερικώς νεφελώδης
Ορατότητα: 10 km
Ανάλυση νέφωσης: Μερικώς νεφελώδης 701 m
Μερικώς νεφελώδης 1006 m
2021/12/04 08:30 LDDU 040830Z VRB06KT 9999 SCT023 SCT033 10/05 Q1010 BECMG 32008KT
LYUZ - Αεροδρόμιο στην Ούζιτσε & Πόνικβε
(Ανεπίσημο όνομα αεροδρομίου: Λέπα Γκλάβα)
Ούζιτσε - Σουμαντίγια και Δ. Σερβία - Σερβία
Γ.Πλάτ: 43.9000 - Γ.Μήκ: 19.7000 - Υψόμ: 904μ
Απόσταση από το Vouhead Weather: (ΒΔ) 458χλμ
Ενημερώθηκε: 04/11/2021 01:30
ΜΗ ΠΡΟΣΦΑΤΟ METAR

 Άνεμος από Μεταβλητός
Άνεμος: Μεταβλητός 9 km/h
Θερμοκρασία: 14°C
Σημ. Δρόσου: 7°C
Υγρασία: 63%
Βαρόμετρο: 1010 hPa
Ορατότητα: 10 km
2021/11/03 23:30 LYUZ 032330Z AUTO VRB05KT 9999 ////// 14/07 Q1010
 
LGSM - Αεροδρόμιο "Αρίσταρχος ο Σάμιος"
Σάμος - Βόρειο Αιγαίο - Ελλάδα
Γ.Πλάτ: 37.6833 - Γ.Μήκ: 26.9167 - Υψόμ: 6μ
Απόσταση από το Vouhead Weather: (ΝΑ) 467χλμ
Ενημερώθηκε: 04/12/2021 09:50
Κυρίως νεφελώδης
Κυρίως νεφελώδης
 Άνεμος από Ν
Άνεμος: Ν 39 km/h
Θερμοκρασία: 18°C
Σημ. Δρόσου: 13°C
Υγρασία: 73%
Βαρόμετρο: 1012 hPa
Σύννεφα: Κυρίως νεφελώδης
Ορατότητα: 10 km
Ανάλυση νέφωσης: Διάσπαρτα νέφη 549 m
Κυρίως νεφελώδης 762 m
2021/12/04 07:50 LGSM 040750Z 17021KT 9999 FEW018 BKN025 18/13 Q1012
LIBG - Αεροδρόμιο "Μαρτσέλο Αρλόττα"
Μουντιάζι(Ταράντο-Γκροτάλιε)-Απουλία(Ταράντο)-Ιταλία
Γ.Πλάτ: 40.5167 - Γ.Μήκ: 17.3833 - Υψόμ: 69μ
Απόσταση από το Vouhead Weather: (Δ) 472χλμ
Ενημερώθηκε: 04/12/2021 09:50
Αίθριος
Αίθριος
 Άνεμος από ΔΝΔ
Άνεμος: ΔΝΔ 15 km/h
Θερμοκρασία: 11°C
Σημ. Δρόσου: 5°C
Υγρασία: 67%
Βαρόμετρο: 1011 hPa
Περίληψη: Αίθριος
Ορατότητα: Μεγαλύτερη από 10 km
2021/12/04 07:50 LIBG 040750Z 25008KT 210V310 CAVOK 11/05 Q1011
 
LGKC - Αεροδρόμιο στα Κύθηρα
Κύθηρα(Επτάνησα) - Αττική(Νήσοι) - Ελλάδα
Γ.Πλάτ: 36.2833 - Γ.Μήκ: 23.0167 - Υψόμ: 319μ
Απόσταση από το Vouhead Weather: (Ν) 476χλμ
Ενημερώθηκε: 02/12/2021 18:50
ΜΗ ΠΡΟΣΦΑΤΟ METAR
Ασθενής βροχή, Μερικώς νεφελώδης
Ασθενής βροχή, Μερικώς νεφελώδης
 Άνεμος από ΔΝΔ
Άνεμος: ΔΝΔ 19 km/h
Θερμοκρασία: 13°C
Σημ. Δρόσου: 12°C
Υγρασία: 94%
Βαρόμετρο: 1016 hPa
Περίληψη: Ασθενής βροχή
Σύννεφα: Μερικώς νεφελώδης
Ορατότητα: 10 km
Ανάλυση νέφωσης: Διάσπαρτα νέφη 488 m
Μερικώς νεφελώδης 762 m
2021/12/02 16:50 LGKC 021650Z 24010KT 9999 -RA FEW016 SCT025 13/12 Q1016
LTBA - Αεροδρόμιο "Ατατούρκ"
Κωνσταντινούπολη - Μαρμαράς(Κων/πολη) - Τουρκία
Γ.Πλάτ: 40.9667 - Γ.Μήκ: 28.8167 - Υψόμ: 37μ
Απόσταση από το Vouhead Weather: (Α) 494χλμ
Ενημερώθηκε: 04/12/2021 10:20
Ασθενής βροχή, Showers, Κυρίως νεφελώδης
Ασθενής βροχή, Showers, Κυρίως νεφελώδης
 Άνεμος από ΝΑ
Άνεμος: ΝΑ 15 km/h
Θερμοκρασία: 14°C
Σημ. Δρόσου: 11°C
Υγρασία: 82%
Βαρόμετρο: 1010 hPa
Περίληψη: Ασθενής βροχή, Showers
Σύννεφα: Κυρίως νεφελώδης
Ορατότητα: 6 km
Ανάλυση νέφωσης: Κυρίως νεφελώδης 975 m
Κυρίως νεφελώδης 2438 m
2021/12/04 08:20 LTBA 040820Z 14008KT 120V180 6000 -SHRA BKN032 BKN080 14/11 Q1010 NOSIG
   Μην χρησιμοποιήσετε τα στοιχεία για αποφάσεις που αφορούν ζωές και πάσης φύσεως ιδιοκτησίες  
ΠΗΓΑΙΝΕΤΕ ΣΤΗΝ ΙΟΝΙΑ GO TO REA ΠΗΓΑΙΝΕΤΕ ΣΤΗΝ ΚΗΦΙΣΙΑ ΠΗΓΑΙΝΕΤΕ ΣΤΗΝ ΣΥΡΟ ΠΗΓΑΙΝΕΤΕ ΣΤΗΝ ΔΕΞΑΜΕΝΗ (BOLTEK) ΠΗΓΑΙΝΕΤΕ ΣΤΗΝ ΔΕΞΑΜΕΝΗ (LR) ΠΗΓΑΙΝΕΤΕ ΣΤΗΝ ΛΑΡΙΣΑ Γενική Γραμματεία Πολιτικής Προστασίας Ενιαίος Ευρωπαϊκός Αριθμός Έκτακτης Ανάγκης Βίντεο για το Καστελλόριζο(Μεγίστη) από τα αρχεία της ΕΡΤ Ιστοσελίδα Δήμου Μεγίστης Δείτε το μεγαλύτερο